sensor_id;sensor_type;location;lat;lon;timestamp;temperature;humidity
38183;DHT22;23991;52.430;10.586;2023-02-18T00:01:44;7.80;69.60
38183;DHT22;23991;52.430;10.586;2023-02-18T00:04:10;7.90;69.70
38183;DHT22;23991;52.430;10.586;2023-02-18T00:06:35;7.80;69.80
38183;DHT22;23991;52.430;10.586;2023-02-18T00:09:02;7.80;69.60
38183;DHT22;23991;52.430;10.586;2023-02-18T00:11:30;7.90;69.60
38183;DHT22;23991;52.430;10.586;2023-02-18T00:13:58;7.80;69.30
38183;DHT22;23991;52.430;10.586;2023-02-18T00:16:25;7.80;69.30
38183;DHT22;23991;52.430;10.586;2023-02-18T00:18:59;7.80;69.30
38183;DHT22;23991;52.430;10.586;2023-02-18T00:21:25;7.80;69.30
38183;DHT22;23991;52.430;10.586;2023-02-18T00:23:51;7.70;69.10
38183;DHT22;23991;52.430;10.586;2023-02-18T00:26:17;7.80;69.30
38183;DHT22;23991;52.430;10.586;2023-02-18T00:28:44;7.80;69.20
38183;DHT22;23991;52.430;10.586;2023-02-18T00:31:12;7.70;69.20
38183;DHT22;23991;52.430;10.586;2023-02-18T00:33:38;7.70;69.00
38183;DHT22;23991;52.430;10.586;2023-02-18T00:36:06;7.70;68.90
38183;DHT22;23991;52.430;10.586;2023-02-18T00:38:32;7.80;69.00
38183;DHT22;23991;52.430;10.586;2023-02-18T00:40:59;7.70;69.20
38183;DHT22;23991;52.430;10.586;2023-02-18T00:43:25;7.80;69.30
38183;DHT22;23991;52.430;10.586;2023-02-18T00:45:51;7.80;69.20
38183;DHT22;23991;52.430;10.586;2023-02-18T00:48:16;7.80;69.30
38183;DHT22;23991;52.430;10.586;2023-02-18T00:50:42;7.80;69.10
38183;DHT22;23991;52.430;10.586;2023-02-18T00:53:07;7.80;69.10
38183;DHT22;23991;52.430;10.586;2023-02-18T00:55:38;7.80;69.10
38183;DHT22;23991;52.430;10.586;2023-02-18T00:58:04;7.80;69.10
38183;DHT22;23991;52.430;10.586;2023-02-18T01:00:29;7.80;69.40
38183;DHT22;23991;52.430;10.586;2023-02-18T01:02:55;7.80;69.30
38183;DHT22;23991;52.430;10.586;2023-02-18T01:05:20;7.70;69.40
38183;DHT22;23991;52.430;10.586;2023-02-18T01:07:46;7.70;69.40
38183;DHT22;23991;52.430;10.586;2023-02-18T01:10:12;7.70;69.50
38183;DHT22;23991;52.430;10.586;2023-02-18T01:12:38;7.70;69.60
38183;DHT22;23991;52.430;10.586;2023-02-18T01:15:05;7.60;69.60
38183;DHT22;23991;52.430;10.586;2023-02-18T01:17:31;7.70;69.70
38183;DHT22;23991;52.430;10.586;2023-02-18T01:19:56;7.60;69.90
38183;DHT22;23991;52.430;10.586;2023-02-18T01:22:22;7.70;69.90
38183;DHT22;23991;52.430;10.586;2023-02-18T01:24:48;7.60;70.00
38183;DHT22;23991;52.430;10.586;2023-02-18T01:27:13;7.60;69.90
38183;DHT22;23991;52.430;10.586;2023-02-18T01:29:39;7.60;70.10
38183;DHT22;23991;52.430;10.586;2023-02-18T01:32:05;7.60;70.40
38183;DHT22;23991;52.430;10.586;2023-02-18T01:34:30;7.60;70.40
38183;DHT22;23991;52.430;10.586;2023-02-18T01:36:56;7.70;70.60
38183;DHT22;23991;52.430;10.586;2023-02-18T01:39:21;7.60;70.60
38183;DHT22;23991;52.430;10.586;2023-02-18T01:41:47;7.60;70.70
38183;DHT22;23991;52.430;10.586;2023-02-18T01:44:21;7.70;70.50
38183;DHT22;23991;52.430;10.586;2023-02-18T01:46:48;7.70;70.80
38183;DHT22;23991;52.430;10.586;2023-02-18T01:49:26;7.70;70.80
38183;DHT22;23991;52.430;10.586;2023-02-18T01:51:56;7.70;70.90
38183;DHT22;23991;52.430;10.586;2023-02-18T01:57:05;7.70;71.10
38183;DHT22;23991;52.430;10.586;2023-02-18T02:00:05;7.70;71.20
38183;DHT22;23991;52.430;10.586;2023-02-18T02:02:34;7.70;71.40
38183;DHT22;23991;52.430;10.586;2023-02-18T02:05:02;7.70;71.20
38183;DHT22;23991;52.430;10.586;2023-02-18T02:07:28;7.70;71.30
38183;DHT22;23991;52.430;10.586;2023-02-18T02:09:55;7.70;71.30
38183;DHT22;23991;52.430;10.586;2023-02-18T02:15:13;7.70;71.50
38183;DHT22;23991;52.430;10.586;2023-02-18T02:28:58;7.70;71.90
38183;DHT22;23991;52.430;10.586;2023-02-18T02:31:30;7.70;71.80
38183;DHT22;23991;52.430;10.586;2023-02-18T02:39:42;7.70;71.90
38183;DHT22;23991;52.430;10.586;2023-02-18T02:47:50;7.80;72.00
38183;DHT22;23991;52.430;10.586;2023-02-18T02:50:25;7.80;71.70
38183;DHT22;23991;52.430;10.586;2023-02-18T02:52:57;7.80;71.90
38183;DHT22;23991;52.430;10.586;2023-02-18T02:55:24;7.80;72.20
38183;DHT22;23991;52.430;10.586;2023-02-18T02:57:52;7.80;72.10
38183;DHT22;23991;52.430;10.586;2023-02-18T03:00:22;7.80;72.10
38183;DHT22;23991;52.430;10.586;2023-02-18T03:03:14;7.80;72.10
38183;DHT22;23991;52.430;10.586;2023-02-18T03:11:34;7.80;72.30
38183;DHT22;23991;52.430;10.586;2023-02-18T03:14:27;7.80;72.30
38183;DHT22;23991;52.430;10.586;2023-02-18T03:17:01;7.80;72.40
38183;DHT22;23991;52.430;10.586;2023-02-18T03:19:32;7.80;72.60
38183;DHT22;23991;52.430;10.586;2023-02-18T03:24:44;7.80;72.90
38183;DHT22;23991;52.430;10.586;2023-02-18T03:27:17;7.80;72.90
38183;DHT22;23991;52.430;10.586;2023-02-18T03:29:49;7.80;72.90
38183;DHT22;23991;52.430;10.586;2023-02-18T03:32:18;7.80;73.00
38183;DHT22;23991;52.430;10.586;2023-02-18T03:34:49;7.80;72.90
38183;DHT22;23991;52.430;10.586;2023-02-18T03:37:15;7.80;72.80
38183;DHT22;23991;52.430;10.586;2023-02-18T03:39:45;7.80;72.90
38183;DHT22;23991;52.430;10.586;2023-02-18T03:42:14;7.80;72.90
38183;DHT22;23991;52.430;10.586;2023-02-18T03:44:40;7.80;72.80
38183;DHT22;23991;52.430;10.586;2023-02-18T03:47:05;7.80;73.00
38183;DHT22;23991;52.430;10.586;2023-02-18T03:49:31;7.80;72.90
38183;DHT22;23991;52.430;10.586;2023-02-18T03:51:56;7.80;73.00
38183;DHT22;23991;52.430;10.586;2023-02-18T03:54:22;7.80;72.70
38183;DHT22;23991;52.430;10.586;2023-02-18T03:56:47;7.80;72.50
38183;DHT22;23991;52.430;10.586;2023-02-18T03:59:13;7.80;72.60
38183;DHT22;23991;52.430;10.586;2023-02-18T04:01:39;7.80;72.60
38183;DHT22;23991;52.430;10.586;2023-02-18T04:04:05;7.80;72.50
38183;DHT22;23991;52.430;10.586;2023-02-18T04:06:30;7.80;72.40
38183;DHT22;23991;52.430;10.586;2023-02-18T04:08:56;7.80;72.30
38183;DHT22;23991;52.430;10.586;2023-02-18T04:11:22;7.80;72.30
38183;DHT22;23991;52.430;10.586;2023-02-18T04:13:47;7.90;72.40
38183;DHT22;23991;52.430;10.586;2023-02-18T04:16:13;7.90;72.40
38183;DHT22;23991;52.430;10.586;2023-02-18T04:18:38;7.90;72.60
38183;DHT22;23991;52.430;10.586;2023-02-18T04:21:04;7.80;72.70
38183;DHT22;23991;52.430;10.586;2023-02-18T04:23:30;7.90;72.70
38183;DHT22;23991;52.430;10.586;2023-02-18T04:25:55;7.90;72.90
38183;DHT22;23991;52.430;10.586;2023-02-18T04:28:21;7.90;73.10
38183;DHT22;23991;52.430;10.586;2023-02-18T04:30:47;7.80;73.10
38183;DHT22;23991;52.430;10.586;2023-02-18T04:33:13;7.90;73.20
38183;DHT22;23991;52.430;10.586;2023-02-18T04:35:38;7.90;73.10
38183;DHT22;23991;52.430;10.586;2023-02-18T04:38:07;7.90;73.10
38183;DHT22;23991;52.430;10.586;2023-02-18T04:40:34;7.90;73.30
38183;DHT22;23991;52.430;10.586;2023-02-18T04:43:00;7.90;73.30
38183;DHT22;23991;52.430;10.586;2023-02-18T04:45:27;7.90;73.40
38183;DHT22;23991;52.430;10.586;2023-02-18T04:47:53;7.90;73.90
38183;DHT22;23991;52.430;10.586;2023-02-18T04:50:19;7.90;74.30
38183;DHT22;23991;52.430;10.586;2023-02-18T04:52:45;7.90;74.10
38183;DHT22;23991;52.430;10.586;2023-02-18T04:55:11;7.90;74.30
38183;DHT22;23991;52.430;10.586;2023-02-18T04:57:36;7.90;74.50
38183;DHT22;23991;52.430;10.586;2023-02-18T05:00:03;7.90;75.20
38183;DHT22;23991;52.430;10.586;2023-02-18T05:02:31;7.90;75.90
38183;DHT22;23991;52.430;10.586;2023-02-18T05:04:56;7.90;76.20
38183;DHT22;23991;52.430;10.586;2023-02-18T05:07:22;7.90;76.80
38183;DHT22;23991;52.430;10.586;2023-02-18T05:09:47;7.90;77.30
38183;DHT22;23991;52.430;10.586;2023-02-18T05:12:13;7.90;77.60
38183;DHT22;23991;52.430;10.586;2023-02-18T05:14:38;7.90;78.20
38183;DHT22;23991;52.430;10.586;2023-02-18T05:17:04;7.90;78.70
38183;DHT22;23991;52.430;10.586;2023-02-18T05:19:29;7.90;79.10
38183;DHT22;23991;52.430;10.586;2023-02-18T05:21:55;7.80;79.50
38183;DHT22;23991;52.430;10.586;2023-02-18T05:24:20;7.80;80.00
38183;DHT22;23991;52.430;10.586;2023-02-18T05:26:46;7.80;80.20
38183;DHT22;23991;52.430;10.586;2023-02-18T05:29:11;7.90;80.70
38183;DHT22;23991;52.430;10.586;2023-02-18T05:31:37;7.80;81.00
38183;DHT22;23991;52.430;10.586;2023-02-18T05:34:03;7.80;81.50
38183;DHT22;23991;52.430;10.586;2023-02-18T05:36:28;7.80;81.70
38183;DHT22;23991;52.430;10.586;2023-02-18T05:38:54;7.80;82.10
38183;DHT22;23991;52.430;10.586;2023-02-18T05:41:20;7.80;82.30
38183;DHT22;23991;52.430;10.586;2023-02-18T05:43:46;7.80;82.60
38183;DHT22;23991;52.430;10.586;2023-02-18T05:46:30;7.80;82.80
38183;DHT22;23991;52.430;10.586;2023-02-18T05:48:56;7.80;83.10
38183;DHT22;23991;52.430;10.586;2023-02-18T05:51:21;7.80;83.60
38183;DHT22;23991;52.430;10.586;2023-02-18T05:53:47;7.80;83.90
38183;DHT22;23991;52.430;10.586;2023-02-18T05:56:12;7.70;84.40
38183;DHT22;23991;52.430;10.586;2023-02-18T05:58:38;7.70;84.90
38183;DHT22;23991;52.430;10.586;2023-02-18T06:01:03;7.70;85.00
38183;DHT22;23991;52.430;10.586;2023-02-18T06:03:30;7.70;85.30
38183;DHT22;23991;52.430;10.586;2023-02-18T06:05:56;7.60;85.60
38183;DHT22;23991;52.430;10.586;2023-02-18T06:08:21;7.60;85.80
38183;DHT22;23991;52.430;10.586;2023-02-18T06:10:47;7.60;86.10
38183;DHT22;23991;52.430;10.586;2023-02-18T06:13:13;7.70;86.30
38183;DHT22;23991;52.430;10.586;2023-02-18T06:15:38;7.70;86.30
38183;DHT22;23991;52.430;10.586;2023-02-18T06:18:05;7.60;86.50
38183;DHT22;23991;52.430;10.586;2023-02-18T06:20:31;7.60;86.80
38183;DHT22;23991;52.430;10.586;2023-02-18T06:22:56;7.60;86.90
38183;DHT22;23991;52.430;10.586;2023-02-18T06:25:22;7.60;87.00
38183;DHT22;23991;52.430;10.586;2023-02-18T06:27:47;7.70;87.00
38183;DHT22;23991;52.430;10.586;2023-02-18T06:30:13;7.70;87.20
38183;DHT22;23991;52.430;10.586;2023-02-18T06:32:39;7.60;87.20
38183;DHT22;23991;52.430;10.586;2023-02-18T06:35:05;7.70;87.20
38183;DHT22;23991;52.430;10.586;2023-02-18T06:37:31;7.60;87.20
38183;DHT22;23991;52.430;10.586;2023-02-18T06:39:56;7.60;87.40
38183;DHT22;23991;52.430;10.586;2023-02-18T06:42:22;7.60;87.30
38183;DHT22;23991;52.430;10.586;2023-02-18T06:44:47;7.60;87.40
38183;DHT22;23991;52.430;10.586;2023-02-18T06:47:13;7.70;87.50
38183;DHT22;23991;52.430;10.586;2023-02-18T06:49:38;7.60;87.50
38183;DHT22;23991;52.430;10.586;2023-02-18T06:52:04;7.60;87.50
38183;DHT22;23991;52.430;10.586;2023-02-18T06:54:30;7.70;87.60
38183;DHT22;23991;52.430;10.586;2023-02-18T06:56:56;7.60;87.50
38183;DHT22;23991;52.430;10.586;2023-02-18T06:59:22;7.70;87.60
38183;DHT22;23991;52.430;10.586;2023-02-18T07:01:47;7.70;87.50
38183;DHT22;23991;52.430;10.586;2023-02-18T07:04:13;7.70;87.40
38183;DHT22;23991;52.430;10.586;2023-02-18T07:06:38;7.70;87.50
38183;DHT22;23991;52.430;10.586;2023-02-18T07:09:04;7.80;87.40
38183;DHT22;23991;52.430;10.586;2023-02-18T07:11:30;7.80;87.50
38183;DHT22;23991;52.430;10.586;2023-02-18T07:13:55;7.80;87.50
38183;DHT22;23991;52.430;10.586;2023-02-18T07:16:21;7.80;87.50
38183;DHT22;23991;52.430;10.586;2023-02-18T07:18:46;7.80;87.50
38183;DHT22;23991;52.430;10.586;2023-02-18T07:21:12;7.80;87.50
38183;DHT22;23991;52.430;10.586;2023-02-18T07:23:38;7.80;87.50
38183;DHT22;23991;52.430;10.586;2023-02-18T07:26:06;7.80;87.60
38183;DHT22;23991;52.430;10.586;2023-02-18T07:28:32;7.80;87.60
38183;DHT22;23991;52.430;10.586;2023-02-18T07:30:57;7.80;87.60
38183;DHT22;23991;52.430;10.586;2023-02-18T07:33:23;7.80;87.60
38183;DHT22;23991;52.430;10.586;2023-02-18T07:35:53;7.80;87.60
38183;DHT22;23991;52.430;10.586;2023-02-18T07:38:19;7.90;87.60
38183;DHT22;23991;52.430;10.586;2023-02-18T07:40:44;7.90;87.60
38183;DHT22;23991;52.430;10.586;2023-02-18T07:43:10;7.90;87.60
38183;DHT22;23991;52.430;10.586;2023-02-18T07:45:37;7.90;87.60
38183;DHT22;23991;52.430;10.586;2023-02-18T07:48:03;8.00;87.60
38183;DHT22;23991;52.430;10.586;2023-02-18T07:50:29;8.00;87.60
38183;DHT22;23991;52.430;10.586;2023-02-18T07:52:59;8.10;87.50
38183;DHT22;23991;52.430;10.586;2023-02-18T07:55:25;8.10;87.50
38183;DHT22;23991;52.430;10.586;2023-02-18T07:58:10;8.20;87.40
38183;DHT22;23991;52.430;10.586;2023-02-18T08:00:36;8.20;87.20
38183;DHT22;23991;52.430;10.586;2023-02-18T08:03:02;8.20;87.20
38183;DHT22;23991;52.430;10.586;2023-02-18T08:05:28;8.30;87.10
38183;DHT22;23991;52.430;10.586;2023-02-18T08:07:53;8.40;86.90
38183;DHT22;23991;52.430;10.586;2023-02-18T08:10:19;8.50;86.60
38183;DHT22;23991;52.430;10.586;2023-02-18T08:12:44;8.60;86.40
38183;DHT22;23991;52.430;10.586;2023-02-18T08:15:10;8.50;86.20
38183;DHT22;23991;52.430;10.586;2023-02-18T08:17:35;8.60;86.10
38183;DHT22;23991;52.430;10.586;2023-02-18T08:20:01;8.70;86.00
38183;DHT22;23991;52.430;10.586;2023-02-18T08:22:27;8.70;85.90
38183;DHT22;23991;52.430;10.586;2023-02-18T08:24:55;8.70;85.80
38183;DHT22;23991;52.430;10.586;2023-02-18T08:27:22;8.80;85.80
38183;DHT22;23991;52.430;10.586;2023-02-18T08:29:47;8.90;85.50
38183;DHT22;23991;52.430;10.586;2023-02-18T08:32:13;9.00;85.10
38183;DHT22;23991;52.430;10.586;2023-02-18T08:34:39;9.00;85.10
38183;DHT22;23991;52.430;10.586;2023-02-18T08:37:04;9.00;85.10
38183;DHT22;23991;52.430;10.586;2023-02-18T08:39:36;9.20;84.80
38183;DHT22;23991;52.430;10.586;2023-02-18T08:42:03;9.30;84.50
38183;DHT22;23991;52.430;10.586;2023-02-18T08:44:28;9.30;84.50
38183;DHT22;23991;52.430;10.586;2023-02-18T08:46:54;9.30;84.40
38183;DHT22;23991;52.430;10.586;2023-02-18T08:49:19;9.40;84.30
38183;DHT22;23991;52.430;10.586;2023-02-18T08:51:46;9.40;84.30
38183;DHT22;23991;52.430;10.586;2023-02-18T08:54:12;9.50;84.50
38183;DHT22;23991;52.430;10.586;2023-02-18T08:56:38;9.50;84.40
38183;DHT22;23991;52.430;10.586;2023-02-18T08:59:04;9.60;84.40
38183;DHT22;23991;52.430;10.586;2023-02-18T09:01:30;9.70;84.40
38183;DHT22;23991;52.430;10.586;2023-02-18T09:03:57;9.80;84.20
38183;DHT22;23991;52.430;10.586;2023-02-18T09:06:23;9.80;84.20
38183;DHT22;23991;52.430;10.586;2023-02-18T09:08:48;9.90;84.20
38183;DHT22;23991;52.430;10.586;2023-02-18T09:11:14;10.00;84.20
38183;DHT22;23991;52.430;10.586;2023-02-18T09:13:40;10.10;84.20
38183;DHT22;23991;52.430;10.586;2023-02-18T09:16:08;10.20;84.20
38183;DHT22;23991;52.430;10.586;2023-02-18T09:18:35;10.40;84.20
38183;DHT22;23991;52.430;10.586;2023-02-18T09:21:00;10.40;84.00
38183;DHT22;23991;52.430;10.586;2023-02-18T09:23:29;10.60;84.30
38183;DHT22;23991;52.430;10.586;2023-02-18T09:25:55;10.60;84.70
38183;DHT22;23991;52.430;10.586;2023-02-18T09:28:20;10.70;85.10
38183;DHT22;23991;52.430;10.586;2023-02-18T09:30:46;10.70;85.60
38183;DHT22;23991;52.430;10.586;2023-02-18T09:33:12;10.80;85.70
38183;DHT22;23991;52.430;10.586;2023-02-18T09:35:39;10.90;85.90
38183;DHT22;23991;52.430;10.586;2023-02-18T09:38:05;11.10;86.00
38183;DHT22;23991;52.430;10.586;2023-02-18T09:40:32;11.10;86.10
38183;DHT22;23991;52.430;10.586;2023-02-18T09:42:59;11.20;86.20
38183;DHT22;23991;52.430;10.586;2023-02-18T09:45:27;11.30;86.10
38183;DHT22;23991;52.430;10.586;2023-02-18T09:47:53;11.30;86.40
38183;DHT22;23991;52.430;10.586;2023-02-18T09:50:22;11.40;86.10
38183;DHT22;23991;52.430;10.586;2023-02-18T09:52:48;11.40;86.10
38183;DHT22;23991;52.430;10.586;2023-02-18T09:57:55;11.60;85.70
38183;DHT22;23991;52.430;10.586;2023-02-18T10:00:30;11.80;85.60
38183;DHT22;23991;52.430;10.586;2023-02-18T10:03:02;11.80;85.20
38183;DHT22;23991;52.430;10.586;2023-02-18T10:05:29;11.80;85.20
38183;DHT22;23991;52.430;10.586;2023-02-18T10:08:02;11.90;85.00
38183;DHT22;23991;52.430;10.586;2023-02-18T10:10:39;11.90;84.80
38183;DHT22;23991;52.430;10.586;2023-02-18T10:13:18;12.10;84.60
38183;DHT22;23991;52.430;10.586;2023-02-18T10:15:45;12.10;84.50
38183;DHT22;23991;52.430;10.586;2023-02-18T10:20:45;12.30;84.10
38183;DHT22;23991;52.430;10.586;2023-02-18T10:23:11;12.30;83.80
38183;DHT22;23991;52.430;10.586;2023-02-18T10:25:43;12.30;83.70
38183;DHT22;23991;52.430;10.586;2023-02-18T10:28:11;12.40;83.80
38183;DHT22;23991;52.430;10.586;2023-02-18T10:30:40;12.40;83.50
38183;DHT22;23991;52.430;10.586;2023-02-18T10:33:32;12.50;83.00
38183;DHT22;23991;52.430;10.586;2023-02-18T10:36:20;12.50;83.10
38183;DHT22;23991;52.430;10.586;2023-02-18T10:39:02;12.50;82.90
38183;DHT22;23991;52.430;10.586;2023-02-18T10:41:53;12.40;83.00
38183;DHT22;23991;52.430;10.586;2023-02-18T10:44:36;12.50;82.70
38183;DHT22;23991;52.430;10.586;2023-02-18T10:47:21;12.50;82.60
38183;DHT22;23991;52.430;10.586;2023-02-18T10:49:59;12.60;82.20
38183;DHT22;23991;52.430;10.586;2023-02-18T10:52:32;12.70;81.80
38183;DHT22;23991;52.430;10.586;2023-02-18T10:55:00;12.70;81.70
38183;DHT22;23991;52.430;10.586;2023-02-18T10:57:26;12.80;81.40
38183;DHT22;23991;52.430;10.586;2023-02-18T10:59:57;12.80;81.40
38183;DHT22;23991;52.430;10.586;2023-02-18T11:02:26;12.80;81.00
38183;DHT22;23991;52.430;10.586;2023-02-18T11:04:56;12.70;81.30
38183;DHT22;23991;52.430;10.586;2023-02-18T11:07:25;12.80;81.40
38183;DHT22;23991;52.430;10.586;2023-02-18T11:09:56;12.90;80.80
38183;DHT22;23991;52.430;10.586;2023-02-18T11:17:33;12.80;82.00
38183;DHT22;23991;52.430;10.586;2023-02-18T11:20:23;12.80;81.90
38183;DHT22;23991;52.430;10.586;2023-02-18T11:22:49;12.90;82.00
38183;DHT22;23991;52.430;10.586;2023-02-18T11:25:27;12.90;81.70
38183;DHT22;23991;52.430;10.586;2023-02-18T11:28:00;12.90;81.50
38183;DHT22;23991;52.430;10.586;2023-02-18T11:30:33;13.10;81.00
38183;DHT22;23991;52.430;10.586;2023-02-18T11:33:05;13.20;80.60
38183;DHT22;23991;52.430;10.586;2023-02-18T11:35:32;13.10;80.50
38183;DHT22;23991;52.430;10.586;2023-02-18T11:38:00;13.10;80.20
38183;DHT22;23991;52.430;10.586;2023-02-18T11:40:34;13.10;79.70
38183;DHT22;23991;52.430;10.586;2023-02-18T11:43:16;13.10;79.90
38183;DHT22;23991;52.430;10.586;2023-02-18T11:45:45;13.20;79.30
38183;DHT22;23991;52.430;10.586;2023-02-18T11:48:16;13.30;78.80
38183;DHT22;23991;52.430;10.586;2023-02-18T11:50:43;13.30;79.00
38183;DHT22;23991;52.430;10.586;2023-02-18T11:55:56;13.40;79.00
38183;DHT22;23991;52.430;10.586;2023-02-18T11:58:22;13.40;79.00
38183;DHT22;23991;52.430;10.586;2023-02-18T12:00:50;13.30;78.90
38183;DHT22;23991;52.430;10.586;2023-02-18T12:03:23;13.30;79.20
38183;DHT22;23991;52.430;10.586;2023-02-18T12:05:51;13.30;79.40
38183;DHT22;23991;52.430;10.586;2023-02-18T12:08:22;13.20;79.90
38183;DHT22;23991;52.430;10.586;2023-02-18T12:10:54;13.10;80.00
38183;DHT22;23991;52.430;10.586;2023-02-18T12:13:33;13.10;80.00
38183;DHT22;23991;52.430;10.586;2023-02-18T12:16:18;13.10;80.20
38183;DHT22;23991;52.430;10.586;2023-02-18T12:24:33;13.20;79.50
38183;DHT22;23991;52.430;10.586;2023-02-18T12:27:10;13.20;79.30
38183;DHT22;23991;52.430;10.586;2023-02-18T12:30:33;13.10;79.30
38183;DHT22;23991;52.430;10.586;2023-02-18T12:49:21;13.20;78.10
38183;DHT22;23991;52.430;10.586;2023-02-18T13:07:10;12.90;78.80
38183;DHT22;23991;52.430;10.586;2023-02-18T13:15:05;12.90;78.60
38183;DHT22;23991;52.430;10.586;2023-02-18T13:17:38;13.10;78.40
38183;DHT22;23991;52.430;10.586;2023-02-18T13:20:13;13.00;78.30
38183;DHT22;23991;52.430;10.586;2023-02-18T13:22:43;12.90;78.50
38183;DHT22;23991;52.430;10.586;2023-02-18T13:28:20;13.00;78.60
38183;DHT22;23991;52.430;10.586;2023-02-18T13:31:00;12.90;78.70
38183;DHT22;23991;52.430;10.586;2023-02-18T13:33:36;12.90;78.60
38183;DHT22;23991;52.430;10.586;2023-02-18T13:36:17;12.90;78.60
38183;DHT22;23991;52.430;10.586;2023-02-18T13:39:06;13.10;78.10
38183;DHT22;23991;52.430;10.586;2023-02-18T13:41:41;12.90;78.30
38183;DHT22;23991;52.430;10.586;2023-02-18T13:46:51;12.90;78.50
38183;DHT22;23991;52.430;10.586;2023-02-18T13:49:31;13.00;77.60
38183;DHT22;23991;52.430;10.586;2023-02-18T13:51:58;13.00;77.70
38183;DHT22;23991;52.430;10.586;2023-02-18T13:54:42;12.90;78.20
38183;DHT22;23991;52.430;10.586;2023-02-18T13:57:19;12.90;78.60
38183;DHT22;23991;52.430;10.586;2023-02-18T13:59:48;12.80;78.70
38183;DHT22;23991;52.430;10.586;2023-02-18T14:04:54;12.80;78.90
38183;DHT22;23991;52.430;10.586;2023-02-18T14:10:28;13.10;78.00
38183;DHT22;23991;52.430;10.586;2023-02-18T14:22:48;13.00;78.40
38183;DHT22;23991;52.430;10.586;2023-02-18T14:27:50;13.00;78.30
38183;DHT22;23991;52.430;10.586;2023-02-18T14:30:29;13.10;78.00
38183;DHT22;23991;52.430;10.586;2023-02-18T14:32:59;13.10;77.90
38183;DHT22;23991;52.430;10.586;2023-02-18T14:44:31;13.20;77.40
38183;DHT22;23991;52.430;10.586;2023-02-18T14:47:14;13.30;77.10
38183;DHT22;23991;52.430;10.586;2023-02-18T14:49:48;13.20;77.50
38183;DHT22;23991;52.430;10.586;2023-02-18T14:54:57;13.30;76.70
38183;DHT22;23991;52.430;10.586;2023-02-18T14:57:43;13.20;76.70
38183;DHT22;23991;52.430;10.586;2023-02-18T15:00:24;13.10;77.50
38183;DHT22;23991;52.430;10.586;2023-02-18T15:02:54;13.20;77.50
38183;DHT22;23991;52.430;10.586;2023-02-18T15:05:23;13.20;77.30
38183;DHT22;23991;52.430;10.586;2023-02-18T15:08:04;13.20;77.40
38183;DHT22;23991;52.430;10.586;2023-02-18T15:10:43;13.20;76.80
38183;DHT22;23991;52.430;10.586;2023-02-18T15:15:44;13.10;77.20
38183;DHT22;23991;52.430;10.586;2023-02-18T15:18:28;13.30;76.80
38183;DHT22;23991;52.430;10.586;2023-02-18T15:20:55;13.30;76.50
38183;DHT22;23991;52.430;10.586;2023-02-18T15:23:24;13.10;76.90
38183;DHT22;23991;52.430;10.586;2023-02-18T15:25:51;13.30;76.60
38183;DHT22;23991;52.430;10.586;2023-02-18T15:28:27;13.10;77.00
38183;DHT22;23991;52.430;10.586;2023-02-18T15:30:54;13.00;77.70
38183;DHT22;23991;52.430;10.586;2023-02-18T15:33:29;13.00;77.90
38183;DHT22;23991;52.430;10.586;2023-02-18T15:36:03;13.00;77.70
38183;DHT22;23991;52.430;10.586;2023-02-18T15:38:30;13.10;77.50
38183;DHT22;23991;52.430;10.586;2023-02-18T15:40:57;13.10;77.30
38183;DHT22;23991;52.430;10.586;2023-02-18T15:43:24;13.00;77.80
38183;DHT22;23991;52.430;10.586;2023-02-18T15:46:05;12.80;78.00
38183;DHT22;23991;52.430;10.586;2023-02-18T15:51:12;12.90;78.10
38183;DHT22;23991;52.430;10.586;2023-02-18T15:53:52;12.90;77.20
38183;DHT22;23991;52.430;10.586;2023-02-18T15:56:38;12.90;77.10
38183;DHT22;23991;52.430;10.586;2023-02-18T15:59:24;12.80;77.90
38183;DHT22;23991;52.430;10.586;2023-02-18T16:02:09;12.80;77.90
38183;DHT22;23991;52.430;10.586;2023-02-18T16:04:38;12.50;78.10
38183;DHT22;23991;52.430;10.586;2023-02-18T16:07:22;12.60;78.10
38183;DHT22;23991;52.430;10.586;2023-02-18T16:09:48;12.60;78.00
38183;DHT22;23991;52.430;10.586;2023-02-18T16:12:29;12.50;78.50
38183;DHT22;23991;52.430;10.586;2023-02-18T16:14:56;12.60;78.20
38183;DHT22;23991;52.430;10.586;2023-02-18T16:17:26;12.50;78.20
38183;DHT22;23991;52.430;10.586;2023-02-18T16:22:34;12.50;78.20
38183;DHT22;23991;52.430;10.586;2023-02-18T16:25:16;12.60;78.30
38183;DHT22;23991;52.430;10.586;2023-02-18T16:27:52;12.60;78.20
38183;DHT22;23991;52.430;10.586;2023-02-18T16:30:24;12.40;78.80
38183;DHT22;23991;52.430;10.586;2023-02-18T16:32:50;12.40;78.40
38183;DHT22;23991;52.430;10.586;2023-02-18T16:35:19;12.30;78.50
38183;DHT22;23991;52.430;10.586;2023-02-18T16:37:45;12.30;78.90
38183;DHT22;23991;52.430;10.586;2023-02-18T16:42:49;12.30;79.00
38183;DHT22;23991;52.430;10.586;2023-02-18T16:45:15;12.20;79.20
38183;DHT22;23991;52.430;10.586;2023-02-18T16:47:45;12.20;79.30
38183;DHT22;23991;52.430;10.586;2023-02-18T16:50:21;12.10;79.50
38183;DHT22;23991;52.430;10.586;2023-02-18T16:52:52;12.10;79.90
38183;DHT22;23991;52.430;10.586;2023-02-18T16:55:23;11.90;79.90
38183;DHT22;23991;52.430;10.586;2023-02-18T16:57:49;12.00;80.00
38183;DHT22;23991;52.430;10.586;2023-02-18T17:00:16;12.10;80.10
38183;DHT22;23991;52.430;10.586;2023-02-18T17:02:48;11.90;80.00
38183;DHT22;23991;52.430;10.586;2023-02-18T17:05:19;11.90;80.10
38183;DHT22;23991;52.430;10.586;2023-02-18T17:07:45;11.80;80.70
38183;DHT22;23991;52.430;10.586;2023-02-18T17:10:11;11.70;81.70
38183;DHT22;23991;52.430;10.586;2023-02-18T17:12:37;11.70;82.50
38183;DHT22;23991;52.430;10.586;2023-02-18T17:15:30;11.60;82.40
38183;DHT22;23991;52.430;10.586;2023-02-18T17:18:06;11.60;82.60
38183;DHT22;23991;52.430;10.586;2023-02-18T17:20:32;11.60;82.30
38183;DHT22;23991;52.430;10.586;2023-02-18T17:22:58;11.50;82.40
38183;DHT22;23991;52.430;10.586;2023-02-18T17:25:29;11.40;83.10
38183;DHT22;23991;52.430;10.586;2023-02-18T17:27:55;11.40;83.10
38183;DHT22;23991;52.430;10.586;2023-02-18T17:30:21;11.50;83.00
38183;DHT22;23991;52.430;10.586;2023-02-18T17:32:47;11.40;82.80
38183;DHT22;23991;52.430;10.586;2023-02-18T17:35:22;11.40;82.90
38183;DHT22;23991;52.430;10.586;2023-02-18T17:37:48;11.30;82.30
38183;DHT22;23991;52.430;10.586;2023-02-18T17:40:24;11.30;82.70
38183;DHT22;23991;52.430;10.586;2023-02-18T17:42:50;11.30;82.60
38183;DHT22;23991;52.430;10.586;2023-02-18T17:45:28;11.20;82.50
38183;DHT22;23991;52.430;10.586;2023-02-18T17:47:55;11.30;82.90
38183;DHT22;23991;52.430;10.586;2023-02-18T17:50:22;11.30;82.90
38183;DHT22;23991;52.430;10.586;2023-02-18T17:52:47;11.20;82.30
38183;DHT22;23991;52.430;10.586;2023-02-18T17:57:46;11.20;82.00
38183;DHT22;23991;52.430;10.586;2023-02-18T18:00:15;11.10;81.90